Time;durP1;ratioP1;P1;durP2;ratioP2;P2;SDS_P1;SDS_P2;PMS_P1;PMS_P2;Temp;Humidity;BMP_temperature;BMP_pressure;BME280_temperature;BME280_humidity;BME280_pressure;Samples;Min_cycle;Max_cycle;Signal;HPM_P1;HPM_P2
2022/01/18 00:00:46;;;;;;;29.88;5.93;;;7.80;99.90;;;;;;5095554;28;20110;-67
2022/01/18 00:03:12;;;;;;;40.60;5.43;;;7.80;99.90;;;;;;5095086;28;20535;-67
2022/01/18 00:05:38;;;;;;;30.58;4.75;;;7.80;99.90;;;;;;5090317;28;20403;-67
2022/01/18 00:08:05;;;;;;;43.55;5.88;;;7.80;99.90;;;;;;5095103;28;20035;-67
2022/01/18 00:10:32;;;;;;;44.80;6.65;;;7.80;99.90;;;;;;5095211;28;20051;-67
2022/01/18 00:15:38;;;;;;;36.00;4.72;;;7.80;99.90;;;;;;5095511;28;20043;-68
2022/01/18 00:18:08;;;;;;;38.28;5.28;;;7.80;99.90;;;;;;5095311;28;20040;-67
2022/01/18 00:23:28;;;;;;;39.53;5.45;;;7.80;99.90;;;;;;5112980;28;20055;-68
2022/01/18 00:25:56;;;;;;;40.97;5.78;;;7.80;99.90;;;;;;5113387;28;20043;-67
2022/01/18 00:28:24;;;;;;;44.47;6.25;;;7.90;99.90;;;;;;5078001;28;20119;-67
2022/01/18 00:33:50;;;;;;;39.83;5.88;;;7.90;99.90;;;;;;5094421;28;20047;-67
2022/01/18 00:36:37;;;;;;;43.20;6.70;;;7.90;99.90;;;;;;5094906;28;20040;-68
2022/01/18 00:39:10;;;;;;;34.25;5.70;;;7.90;99.90;;;;;;5113668;28;20091;-67
2022/01/18 00:41:38;;;;;;;47.42;6.38;;;7.90;99.90;;;;;;5116919;28;20038;-67
2022/01/18 00:44:04;;;;;;;39.67;6.20;;;7.90;99.90;;;;;;5097711;28;20044;-68
2022/01/18 00:46:30;;;;;;;28.73;5.68;;;7.80;99.90;;;;;;5094770;28;20072;-68
2022/01/18 00:48:59;;;;;;;45.88;6.13;;;7.80;99.90;;;;;;5094753;28;20036;-68
2022/01/18 00:51:25;;;;;;;49.97;6.75;;;7.80;99.90;;;;;;5094527;28;20155;-68
2022/01/18 00:53:51;;;;;;;38.78;6.22;;;7.80;99.90;;;;;;5093966;28;20072;-68
2022/01/18 00:56:24;;;;;;;46.58;7.00;;;7.80;99.90;;;;;;5094454;28;20491;-68
2022/01/18 00:58:50;;;;;;;;;;;7.70;99.90;;;;;;5095002;28;20054;-68
2022/01/18 01:01:18;;;;;;;34.33;6.43;;;7.80;99.90;;;;;;5094481;28;19930;-68
2022/01/18 01:03:44;;;;;;;42.85;5.50;;;7.80;99.90;;;;;;5112045;28;20419;-68
2022/01/18 01:06:10;;;;;;;38.70;6.97;;;7.80;99.90;;;;;;5112537;28;20440;-68
2022/01/18 01:08:36;;;;;;;32.05;5.25;;;7.80;99.90;;;;;;5094286;28;20039;-68
2022/01/18 01:11:03;;;;;;;50.33;5.95;;;7.70;99.90;;;;;;5112509;28;20039;-68
2022/01/18 01:13:30;;;;;;;45.97;6.25;;;7.70;99.90;;;;;;5076907;28;20059;-68
2022/01/18 01:16:10;;;;;;;57.25;6.80;;;7.80;99.90;;;;;;5112577;28;20078;-68
2022/01/18 01:18:47;;;;;;;43.20;7.00;;;7.70;99.90;;;;;;5112582;28;20058;-68
2022/01/18 01:34:44;;;;;;;47.13;6.45;;;7.70;99.90;;;;;;5112081;28;20116;-68
2022/01/18 01:44:51;;;;;;;47.17;7.50;;;7.60;99.90;;;;;;5093653;28;20131;-68
2022/01/18 01:47:20;;;;;;;50.08;8.25;;;7.60;99.90;;;;;;5093870;28;20114;-68
2022/01/18 01:49:49;;;;;;;40.55;6.20;;;7.60;99.90;;;;;;5093814;28;20511;-68
2022/01/18 01:52:16;;;;;;;43.00;6.85;;;7.60;99.90;;;;;;5093755;28;20407;-68
2022/01/18 01:54:42;;;;;;;45.05;6.55;;;7.60;99.90;;;;;;5093760;28;20099;-68
2022/01/18 01:57:08;;;;;;;53.22;7.60;;;7.60;99.90;;;;;;5094027;28;20495;-68
2022/01/18 01:59:34;;;;;;;40.75;6.93;;;7.50;99.90;;;;;;5093798;28;20046;-68
2022/01/18 02:02:00;;;;;;;51.97;7.93;;;7.60;99.90;;;;;;5093577;28;20059;-68
2022/01/18 02:04:25;;;;;;;48.38;6.15;;;7.50;99.90;;;;;;5093750;28;20385;-68
2022/01/18 02:06:51;;;;;;;37.45;6.40;;;7.50;99.90;;;;;;5096009;28;20047;-69
2022/01/18 02:09:18;;;;;;;51.58;7.63;;;7.50;99.90;;;;;;5097413;28;20043;-68
2022/01/18 02:11:44;;;;;;;50.75;7.07;;;7.50;99.90;;;;;;5093874;28;20048;-68
2022/01/18 02:14:16;;;;;;;40.13;5.65;;;7.50;99.90;;;;;;5093639;28;20502;-68
2022/01/18 02:22:10;;;;;;;44.78;6.72;;;7.50;99.90;;;;;;5093340;28;20052;-68
2022/01/18 02:24:36;;;;;;;41.65;5.57;;;7.50;99.90;;;;;;5093300;28;20040;-68
2022/01/18 02:27:02;;;;;;;38.90;6.63;;;7.50;99.90;;;;;;5093656;28;20050;-68
2022/01/18 02:29:28;;;;;;;45.03;6.85;;;7.40;99.90;;;;;;5093809;28;20071;-68
2022/01/18 02:31:55;;;;;;;44.33;7.03;;;7.40;99.90;;;;;;5093512;28;20063;-68
2022/01/18 02:34:22;;;;;;;39.22;6.00;;;7.40;99.90;;;;;;5093532;28;20047;-68
2022/01/18 02:36:48;;;;;;;35.22;6.75;;;7.40;99.90;;;;;;5111668;28;20031;-68
2022/01/18 02:39:19;;;;;;;37.15;6.22;;;7.40;99.90;;;;;;5093646;28;20395;-68
2022/01/18 02:41:55;;;;;;;38.97;5.80;;;7.40;99.90;;;;;;5111437;28;20407;-69
2022/01/18 02:44:21;;;;;;;34.45;6.18;;;7.40;99.90;;;;;;5113831;28;20050;-68
2022/01/18 02:46:47;;;;;;;33.50;5.72;;;7.30;99.90;;;;;;5115416;28;20488;-68
2022/01/18 02:49:12;;;;;;;31.20;6.70;;;7.30;99.90;;;;;;5115276;28;20035;-68
2022/01/18 02:51:38;;;;;;;37.88;6.65;;;7.30;99.90;;;;;;5097048;28;20101;-68
2022/01/18 02:54:13;;;;;;;33.85;6.82;;;7.30;99.90;;;;;;5096746;28;20042;-68
2022/01/18 02:56:49;;;;;;;33.63;6.70;;;7.30;99.90;;;;;;5096922;28;20119;-68
2022/01/18 02:59:21;;;;;;;42.22;7.22;;;7.30;99.90;;;;;;5115029;28;20047;-68
2022/01/18 03:04:39;;;;;;;36.92;6.00;;;7.30;99.90;;;;;;5114920;28;20404;-68
2022/01/18 03:07:05;;;;;;;34.97;7.03;;;7.30;99.90;;;;;;5096422;28;20502;-68
2022/01/18 03:09:30;;;;;;;29.55;6.65;;;7.30;99.90;;;;;;5114811;28;20040;-68
2022/01/18 03:11:56;;;;;;;34.20;6.68;;;7.20;99.90;;;;;;5096263;28;20040;-68
2022/01/18 03:14:22;;;;;;;31.80;6.30;;;7.20;99.90;;;;;;5114713;28;20150;-67
2022/01/18 03:16:47;;;;;;;37.00;6.25;;;7.20;99.90;;;;;;5096860;28;20138;-68
2022/01/18 03:19:13;;;;;;;29.15;5.78;;;7.20;99.90;;;;;;5096583;28;20043;-68
2022/01/18 03:21:40;;;;;;;27.52;5.80;;;7.20;99.90;;;;;;5114536;28;20032;-68
2022/01/18 03:29:39;;;;;;;31.70;6.18;;;7.20;99.90;;;;;;5096220;28;20043;-68
2022/01/18 03:32:05;;;;;;;36.10;6.95;;;7.20;99.90;;;;;;5095990;28;20035;-68
2022/01/18 03:34:31;;;;;;;28.77;6.35;;;7.20;99.90;;;;;;5116767;28;20381;-68
2022/01/18 03:36:58;;;;;;;38.95;6.78;;;7.20;99.90;;;;;;5100061;28;20047;-68
2022/01/18 03:39:24;;;;;;;28.08;6.75;;;7.20;99.90;;;;;;5079534;28;20047;-68
2022/01/18 03:42:09;;;;;;;23.92;6.25;;;7.20;99.90;;;;;;5095840;28;20054;-68
2022/01/18 03:44:35;;;;;;;29.77;7.63;;;7.20;99.90;;;;;;5095990;28;20035;-68
2022/01/18 03:47:01;;;;;;;27.77;6.15;;;7.20;99.90;;;;;;5114347;28;20093;-68
2022/01/18 03:49:27;;;;;;;24.65;5.57;;;7.10;99.90;;;;;;5096051;28;20069;-68
2022/01/18 03:51:53;;;;;;;39.60;7.57;;;7.10;99.90;;;;;;5113780;28;20044;-68
2022/01/18 03:54:23;;;;;;;25.23;5.95;;;7.10;99.90;;;;;;5113970;28;20488;-68
2022/01/18 03:56:48;;;;;;;35.85;7.13;;;7.10;99.90;;;;;;5095783;28;20526;-68
2022/01/18 03:59:14;;;;;;;32.88;6.65;;;7.10;99.90;;;;;;5113958;28;20035;-68
2022/01/18 04:01:39;;;;;;;35.20;6.15;;;7.10;99.90;;;;;;5078734;28;20127;-68
2022/01/18 04:04:05;;;;;;;28.35;6.05;;;7.10;99.90;;;;;;5095514;28;20055;-66
2022/01/18 04:06:31;;;;;;;28.77;6.40;;;7.10;99.90;;;;;;5095858;28;20040;-67
2022/01/18 04:08:56;;;;;;;39.28;6.57;;;7.10;99.90;;;;;;5095824;28;20036;-67
2022/01/18 04:11:22;;;;;;;25.60;5.82;;;7.10;99.90;;;;;;5095740;28;20044;-67
2022/01/18 04:13:47;;;;;;;38.97;6.38;;;7.10;99.90;;;;;;5095240;28;20043;-67
2022/01/18 04:16:14;;;;;;;25.80;5.13;;;7.10;99.90;;;;;;5095522;28;20411;-67
2022/01/18 04:18:55;;;;;;;26.90;4.85;;;7.10;99.90;;;;;;5095701;28;20044;-67
2022/01/18 04:26:56;;;;;;;20.73;4.97;;;7.10;99.90;;;;;;5113586;28;20047;-68
2022/01/18 04:29:23;;;;;;;31.73;5.70;;;7.10;99.90;;;;;;5078081;28;20042;-68
2022/01/18 04:31:49;;;;;;;21.30;5.55;;;7.10;99.90;;;;;;5112886;28;20044;-68
2022/01/18 04:34:15;;;;;;;33.58;5.65;;;7.10;99.90;;;;;;5113048;28;20502;-68
2022/01/18 04:36:40;;;;;;;34.53;5.53;;;7.10;99.90;;;;;;5094895;28;20043;-68
2022/01/18 04:39:06;;;;;;;25.17;5.18;;;7.10;99.90;;;;;;5113174;28;20043;-68
2022/01/18 04:41:32;;;;;;;29.75;5.30;;;7.10;99.90;;;;;;5112973;28;20040;-68
2022/01/18 04:49:11;;;;;;;23.95;4.68;;;7.10;99.90;;;;;;5094729;28;20043;-68
2022/01/18 04:51:37;;;;;;;28.45;5.55;;;7.10;99.90;;;;;;5112849;28;20043;-68
2022/01/18 04:54:06;;;;;;;28.25;5.07;;;7.10;99.90;;;;;;5094400;28;20126;-68
2022/01/18 04:59:02;;;;;;;27.73;4.72;;;7.10;99.90;;;;;;5113082;28;20051;-68
2022/01/18 05:01:27;;;;;;;19.35;4.80;;;7.10;99.90;;;;;;5112657;28;20039;-68
2022/01/18 05:03:53;;;;;;;25.10;4.63;;;7.10;99.90;;;;;;5098946;28;20048;-68
2022/01/18 05:06:19;;;;;;;16.13;4.35;;;7.10;99.90;;;;;;5102899;28;20035;-68
2022/01/18 05:08:46;;;;;;;28.85;6.28;;;7.10;99.90;;;;;;5095516;28;20051;-68
2022/01/18 05:11:18;;;;;;;27.33;4.38;;;7.10;99.90;;;;;;5112598;28;20047;-68
2022/01/18 05:21:26;;;;;;;22.45;4.13;;;7.10;99.90;;;;;;5094050;28;20047;-68
2022/01/18 05:23:54;;;;;;;27.13;5.03;;;7.10;99.90;;;;;;5093784;28;20475;-68
2022/01/18 05:26:20;;;;;;;21.83;3.85;;;7.20;99.90;;;;;;5094159;28;20042;-68
2022/01/18 05:28:46;;;;;;;27.95;4.80;;;7.10;99.90;;;;;;5094145;28;20043;-68
2022/01/18 05:31:12;;;;;;;23.40;5.18;;;7.10;99.90;;;;;;5112330;28;20040;-68
2022/01/18 05:33:40;;;;;;;32.25;4.30;;;7.10;99.90;;;;;;5093319;28;20050;-68
2022/01/18 05:36:06;;;;;;;30.92;5.15;;;7.10;99.90;;;;;;5094063;28;20051;-68
2022/01/18 05:38:33;;;;;;;21.27;4.57;;;7.10;99.90;;;;;;5077663;28;20043;-68
2022/01/18 05:40:59;;;;;;;22.50;5.72;;;7.10;99.90;;;;;;5094095;28;20400;-68
2022/01/18 05:43:25;;;;;;;21.60;4.65;;;7.10;99.90;;;;;;5093615;28;20044;-68
2022/01/18 05:45:50;;;;;;;21.05;4.75;;;7.10;99.90;;;;;;5112224;28;20450;-68
2022/01/18 05:48:16;;;;;;;30.42;6.82;;;7.10;99.90;;;;;;5112235;28;20114;-68
2022/01/18 05:50:42;;;;;;;21.58;4.35;;;7.00;99.90;;;;;;5094145;28;20043;-68
2022/01/18 05:53:07;;;;;;;21.70;4.05;;;7.10;99.90;;;;;;5093877;28;20031;-68
2022/01/18 05:55:33;;;;;;;18.13;4.63;;;7.00;99.90;;;;;;5094197;28;20040;-69
2022/01/18 05:57:59;;;;;;;20.40;4.15;;;7.10;99.90;;;;;;5094106;28;20040;-69
2022/01/18 06:00:26;;;;;;;22.92;4.45;;;7.00;99.90;;;;;;5112056;28;20085;-68
2022/01/18 06:08:04;;;;;;;22.42;5.28;;;7.10;99.90;;;;;;5093771;28;20044;-69
2022/01/18 06:10:30;;;;;;;18.85;4.50;;;7.10;99.90;;;;;;5093809;28;20036;-68
2022/01/18 06:12:56;;;;;;;25.52;5.15;;;7.10;99.90;;;;;;5093437;28;20118;-68
2022/01/18 06:15:21;;;;;;;9.35;3.30;;;7.10;99.90;;;;;;5094017;28;20480;-68
2022/01/18 06:17:47;;;;;;;16.33;3.33;;;7.00;99.90;;;;;;5093757;28;20050;-68
2022/01/18 06:20:13;;;;;;;18.40;3.25;;;7.00;99.90;;;;;;5097484;28;20471;-68
2022/01/18 06:22:39;;;;;;;24.05;4.35;;;7.10;99.90;;;;;;5115590;28;20050;-68
2022/01/18 06:25:06;;;;;;;25.15;4.90;;;7.10;99.90;;;;;;5097263;28;20418;-68
2022/01/18 06:27:34;;;;;;;17.92;3.78;;;7.00;99.90;;;;;;5102416;28;20100;-68
2022/01/18 06:30:00;;;;;;;27.85;3.70;;;7.00;99.90;;;;;;5102824;28;20560;-68
2022/01/18 06:32:26;;;;;;;20.95;4.70;;;7.00;99.90;;;;;;5097959;28;20074;-69
2022/01/18 06:34:52;;;;;;;17.52;4.63;;;7.00;99.90;;;;;;5097296;28;20044;-68
2022/01/18 06:37:19;;;;;;;18.85;3.78;;;7.00;99.90;;;;;;5115556;28;20043;-68
2022/01/18 06:39:45;;;;;;;23.75;4.45;;;7.00;99.90;;;;;;5115538;28;20035;-68
2022/01/18 06:42:12;;;;;;;17.35;4.50;;;7.00;99.90;;;;;;5096934;28;20028;-68
2022/01/18 06:44:38;;;;;;;30.63;3.97;;;7.00;99.90;;;;;;5096822;28;20043;-68
2022/01/18 06:47:04;;;;;;;10.50;3.50;;;7.00;99.90;;;;;;5097155;28;20039;-68
2022/01/18 06:49:30;;;;;;;20.27;4.65;;;7.00;99.90;;;;;;5097023;28;20515;-68
2022/01/18 06:51:55;;;;;;;16.60;4.63;;;6.90;99.90;;;;;;5131140;27;20032;-68
2022/01/18 06:54:21;;;;;;;17.60;4.40;;;6.90;99.90;;;;;;5135727;27;20042;-68
2022/01/18 06:56:49;;;;;;;21.95;4.43;;;6.90;99.90;;;;;;5117408;27;20562;-68
2022/01/18 06:59:15;;;;;;;17.75;4.10;;;7.00;99.90;;;;;;5117458;27;20046;-68
2022/01/18 07:01:41;;;;;;;18.08;4.75;;;7.00;99.90;;;;;;5117238;27;20399;-68
2022/01/18 07:04:07;;;;;;;20.02;4.47;;;6.90;99.90;;;;;;5117026;27;20046;-68
2022/01/18 07:06:34;;;;;;;20.73;5.55;;;6.90;99.90;;;;;;5117119;27;20027;-68
2022/01/18 07:09:00;;;;;;;18.60;5.18;;;6.90;99.90;;;;;;5116962;27;20039;-68
2022/01/18 07:11:26;;;;;;;27.67;5.82;;;7.00;99.90;;;;;;5135436;27;20121;-68
2022/01/18 07:13:52;;;;;;;22.23;5.43;;;6.90;99.90;;;;;;5116635;27;20126;-69
2022/01/18 07:16:18;;;;;;;21.30;5.88;;;6.90;99.90;;;;;;5135321;27;20035;-69
2022/01/18 07:18:44;;;;;;;23.77;7.03;;;6.90;99.90;;;;;;5116951;27;20031;-69
2022/01/18 07:21:10;;;;;;;19.80;5.90;;;6.80;99.90;;;;;;5135160;27;20035;-69
2022/01/18 07:23:37;;;;;;;18.42;5.93;;;6.80;99.90;;;;;;5116375;27;20045;-68
2022/01/18 07:26:03;;;;;;;17.90;5.35;;;6.80;99.90;;;;;;5134247;27;20434;-68
2022/01/18 07:28:29;;;;;;;14.93;5.18;;;6.80;99.90;;;;;;5113882;27;20392;-68
2022/01/18 07:30:54;;;;;;;17.92;5.07;;;6.80;99.90;;;;;;5094797;28;20039;-69
2022/01/18 07:33:20;;;;;;;18.05;5.50;;;6.70;99.90;;;;;;5112706;28;20046;-69
2022/01/18 07:35:46;;;;;;;17.15;5.30;;;6.80;99.90;;;;;;5095412;28;20122;-69
2022/01/18 07:38:15;;;;;;;18.02;4.85;;;6.80;99.90;;;;;;5113391;28;20245;-68
2022/01/18 07:40:42;;;;;;;18.58;5.93;;;6.80;99.90;;;;;;5092678;28;20086;-68
2022/01/18 07:43:09;;;;;;;21.83;6.78;;;6.80;99.90;;;;;;5110127;28;20055;-68
2022/01/18 07:45:35;;;;;;;16.13;5.60;;;6.70;99.90;;;;;;5111093;28;20126;-68
2022/01/18 07:48:00;;;;;;;16.70;5.30;;;6.80;99.90;;;;;;5110876;28;20051;-68
2022/01/18 07:50:26;;;;;;;21.38;5.18;;;6.80;99.90;;;;;;5092888;28;20044;-68
2022/01/18 07:52:52;;;;;;;22.50;5.85;;;6.80;99.90;;;;;;5094252;28;20397;-67
2022/01/18 07:55:18;;;;;;;17.70;5.18;;;6.80;99.90;;;;;;5099016;28;20132;-67
2022/01/18 07:57:44;;;;;;;16.80;5.47;;;6.80;99.90;;;;;;5117989;27;20043;-68
2022/01/18 08:00:15;;;;;;;25.70;5.75;;;6.90;99.90;;;;;;5133571;27;20039;-68
2022/01/18 08:02:41;;;;;;;24.55;6.95;;;6.80;99.90;;;;;;5114428;27;20046;-68
2022/01/18 08:05:08;;;;;;;20.65;6.15;;;6.80;99.90;;;;;;5114717;27;20050;-68
2022/01/18 08:07:35;;;;;;;22.55;6.25;;;6.90;99.90;;;;;;5134424;27;20096;-68
2022/01/18 08:10:00;;;;;;;19.30;5.80;;;6.90;99.90;;;;;;5115862;27;20118;-68
2022/01/18 08:12:26;;;;;;;17.40;6.13;;;6.80;99.90;;;;;;5115521;27;20118;-68
2022/01/18 08:14:59;;;;;;;18.23;5.75;;;6.90;99.90;;;;;;5115988;27;20069;-68
2022/01/18 08:17:25;;;;;;;16.73;5.35;;;6.90;99.90;;;;;;5116150;27;20391;-68
2022/01/18 08:19:50;;;;;;;22.10;5.93;;;6.90;99.90;;;;;;5115968;27;20054;-68
2022/01/18 08:22:16;;;;;;;15.15;5.85;;;6.90;99.90;;;;;;5115425;27;20098;-68
2022/01/18 08:24:41;;;;;;;18.45;5.78;;;6.90;99.90;;;;;;5115604;27;20485;-68
2022/01/18 08:27:07;;;;;;;22.30;6.47;;;6.90;99.90;;;;;;5115596;27;20050;-68
2022/01/18 08:29:37;;;;;;;16.50;6.07;;;6.90;99.90;;;;;;5133910;27;20035;-68
2022/01/18 08:32:04;;;;;;;16.38;6.32;;;6.90;99.90;;;;;;5133574;27;20039;-68
2022/01/18 08:34:30;;;;;;;15.20;6.00;;;6.90;99.90;;;;;;5115304;27;20558;-68
2022/01/18 08:36:56;;;;;;;25.80;7.22;;;6.90;99.90;;;;;;5098688;27;20050;-68
2022/01/18 08:39:21;;;;;;;33.33;7.45;;;6.80;99.90;;;;;;5133164;27;20119;-69
2022/01/18 08:41:47;;;;;;;30.95;7.30;;;6.80;99.90;;;;;;5132550;27;20035;-68
2022/01/18 08:44:13;;;;;;;25.30;6.65;;;6.90;99.90;;;;;;5133521;27;20122;-68
2022/01/18 08:46:38;;;;;;;27.85;8.20;;;6.90;99.90;;;;;;5115217;27;20046;-68
2022/01/18 08:49:05;;;;;;;23.88;7.32;;;6.90;99.90;;;;;;5115196;27;20510;-68
2022/01/18 08:51:31;;;;;;;20.63;6.95;;;6.90;99.90;;;;;;5097583;27;20115;-67
2022/01/18 08:53:57;;;;;;;19.95;6.90;;;6.90;99.90;;;;;;5114763;27;20122;-67
2022/01/18 08:56:23;;;;;;;22.65;6.95;;;6.90;99.90;;;;;;5114993;27;20376;-67
2022/01/18 08:58:49;;;;;;;17.80;6.47;;;6.90;99.90;;;;;;5132974;27;20043;-67
2022/01/18 09:01:16;;;;;;;29.50;7.32;;;6.90;99.90;;;;;;5114560;27;20126;-67
2022/01/18 09:03:42;;;;;;;20.80;7.28;;;6.90;99.90;;;;;;5114140;27;20053;-66
2022/01/18 09:06:08;;;;;;;16.60;7.10;;;7.00;99.90;;;;;;5114577;27;20462;-66
2022/01/18 09:08:37;;;;;;;27.35;8.15;;;6.90;99.90;;;;;;5114756;27;20049;-67
2022/01/18 09:11:04;;;;;;;25.17;8.13;;;6.90;99.90;;;;;;5114674;27;20049;-67
2022/01/18 09:13:31;;;;;;;22.70;7.68;;;6.90;99.90;;;;;;5114207;27;20031;-67
2022/01/18 09:15:56;;;;;;;24.63;7.78;;;7.00;99.90;;;;;;5133159;27;20035;-68
2022/01/18 09:18:22;;;;;;;24.73;8.10;;;7.00;99.90;;;;;;5117495;27;20039;-67
2022/01/18 09:20:48;;;;;;;20.55;7.43;;;7.00;99.90;;;;;;5116769;27;20042;-67
2022/01/18 09:23:14;;;;;;;23.33;7.30;;;7.00;99.90;;;;;;5113763;27;20047;-67
2022/01/18 09:25:40;;;;;;;24.25;7.45;;;7.00;99.90;;;;;;5114594;27;20038;-68
2022/01/18 09:28:05;;;;;;;23.00;6.50;;;7.00;99.90;;;;;;5114489;27;20609;-65
2022/01/18 09:30:33;;;;;;;20.75;6.72;;;7.00;99.90;;;;;;5104201;27;20035;-65
2022/01/18 09:32:59;;;;;;;20.77;6.18;;;7.00;99.90;;;;;;5120910;27;20039;-66
2022/01/18 09:35:25;;;;;;;19.17;6.88;;;7.00;99.90;;;;;;5144010;27;20037;-66
2022/01/18 09:37:51;;;;;;;18.35;6.25;;;7.00;99.90;;;;;;5104023;27;20042;-66
2022/01/18 09:40:19;;;;;;;21.83;7.25;;;7.10;99.90;;;;;;5115372;27;20094;-66
2022/01/18 09:42:47;;;;;;;24.95;6.80;;;7.10;99.90;;;;;;5104818;27;20129;-66
2022/01/18 09:45:15;;;;;;;19.98;6.18;;;7.10;99.90;;;;;;5118691;28;20079;-66
2022/01/18 09:47:44;;;;;;;19.02;5.85;;;7.10;99.90;;;;;;5113203;28;20050;-67
2022/01/18 09:50:12;;;;;;;16.23;5.60;;;7.10;99.90;;;;;;5132739;28;20070;-68
2022/01/18 09:52:38;;;;;;;19.30;6.22;;;7.20;99.90;;;;;;5133288;27;20039;-67
2022/01/18 09:55:07;;;;;;;19.38;6.60;;;7.20;99.90;;;;;;5106666;27;20047;-67
2022/01/18 09:57:34;;;;;;;16.98;6.50;;;7.20;99.90;;;;;;5124640;27;20077;-69
2022/01/18 09:59:59;;;;;;;17.67;6.25;;;7.10;99.90;;;;;;5124340;27;20084;-69
2022/01/18 10:02:26;;;;;;;22.77;6.93;;;7.00;99.90;;;;;;5147075;27;20039;-68
2022/01/18 10:04:53;;;;;;;17.20;7.82;;;7.20;99.90;;;;;;5108643;27;20415;-68
2022/01/18 10:07:32;;;;;;;25.15;7.32;;;7.20;99.90;;;;;;5121492;27;20106;-68
2022/01/18 10:09:58;;;;;;;25.50;7.82;;;7.20;99.90;;;;;;5123092;27;20043;-68
2022/01/18 10:12:24;;;;;;;14.80;6.47;;;7.20;99.90;;;;;;5101580;27;20406;-69
2022/01/18 10:14:55;;;;;;;16.30;6.93;;;7.20;99.90;;;;;;5118148;27;20043;-68
2022/01/18 10:17:30;;;;;;;15.57;6.95;;;7.20;99.90;;;;;;5118079;27;20058;-68
2022/01/18 10:20:03;;;;;;;16.25;6.55;;;7.30;99.90;;;;;;5118048;27;20049;-69
2022/01/18 10:22:41;;;;;;;18.92;6.35;;;7.30;99.90;;;;;;5136040;27;20376;-68
2022/01/18 10:25:22;;;;;;;20.17;7.22;;;7.30;99.90;;;;;;5100662;27;20043;-68
2022/01/18 10:27:51;;;;;;;17.88;6.30;;;7.30;99.90;;;;;;5117818;27;20087;-68
2022/01/18 10:30:31;;;;;;;15.77;8.20;;;7.30;99.90;;;;;;5136157;27;20043;-68
2022/01/18 10:33:12;;;;;;;18.88;7.28;;;7.30;99.90;;;;;;5117445;27;20035;-68
2022/01/18 10:36:09;;;;;;;18.25;7.00;;;7.40;99.90;;;;;;5117791;27;20099;-68
2022/01/18 10:38:35;;;;;;;23.23;7.53;;;7.40;99.90;;;;;;5117485;27;20047;-68
2022/01/18 10:41:28;;;;;;;23.30;7.15;;;7.40;99.90;;;;;;5120341;27;20083;-68
2022/01/18 10:44:14;;;;;;;18.13;6.97;;;7.40;99.90;;;;;;5119629;27;20043;-68
2022/01/18 10:46:43;;;;;;;17.30;6.45;;;7.40;99.90;;;;;;5136087;27;20082;-68
2022/01/18 10:49:10;;;;;;;17.08;7.55;;;7.40;99.90;;;;;;5117543;27;20039;-68
2022/01/18 10:51:38;;;;;;;21.42;7.88;;;7.40;99.90;;;;;;5117341;27;20066;-69
2022/01/18 10:54:09;;;;;;;20.38;7.18;;;7.50;99.90;;;;;;5117178;27;20047;-68
2022/01/18 10:56:40;;;;;;;21.88;8.10;;;7.50;99.90;;;;;;5135880;27;20091;-68
2022/01/18 10:59:06;;;;;;;18.95;7.45;;;7.60;99.90;;;;;;5117232;27;20047;-68
2022/01/18 11:01:32;;;;;;;21.00;7.68;;;7.60;99.90;;;;;;5135510;27;20407;-67
2022/01/18 11:04:15;;;;;;;27.80;8.38;;;7.60;99.90;;;;;;5116033;27;20050;-66
2022/01/18 11:06:56;;;;;;;18.23;8.25;;;7.60;99.90;;;;;;5117445;27;20039;-68
2022/01/18 11:09:22;;;;;;;22.42;7.90;;;7.60;99.90;;;;;;5117099;27;20063;-68
2022/01/18 11:11:48;;;;;;;23.85;8.00;;;7.60;99.90;;;;;;5116738;27;20066;-65
2022/01/18 11:14:18;;;;;;;20.65;8.32;;;7.60;99.90;;;;;;5117233;27;20043;-67
2022/01/18 11:16:46;;;;;;;14.68;6.55;;;7.60;99.90;;;;;;5135684;27;20035;-67
2022/01/18 11:19:28;;;;;;;32.05;11.35;;;7.70;99.90;;;;;;5117001;27;20050;-67
2022/01/18 11:21:57;;;;;;;18.42;6.65;;;7.70;99.90;;;;;;5116526;27;20043;-67
2022/01/18 11:24:24;;;;;;;16.75;6.88;;;7.70;99.90;;;;;;5116809;27;20487;-67
2022/01/18 11:26:49;;;;;;;17.60;6.65;;;7.70;99.90;;;;;;5135099;27;20035;-67
2022/01/18 11:29:18;;;;;;;13.30;6.53;;;7.70;99.90;;;;;;5116587;27;20175;-68
2022/01/18 11:31:51;;;;;;;16.90;6.93;;;7.70;99.90;;;;;;5116363;27;20084;-67
2022/01/18 11:34:49;;;;;;;18.58;6.72;;;7.70;99.90;;;;;;5116762;27;20501;-68
2022/01/18 11:37:35;;;;;;;11.98;4.78;;;7.60;99.90;;;;;;5107368;27;20140;-68
2022/01/18 11:40:07;;;;;;;12.50;4.00;;;7.70;99.90;;;;;;5116552;27;20103;-68
2022/01/18 11:42:41;;;;;;;;;;;7.70;99.90;;;;;;5116753;27;20100;-67
2022/01/18 11:45:28;;;;;;;13.10;3.13;;;7.70;99.90;;;;;;5116103;27;19968;-67
2022/01/18 11:48:11;;;;;;;9.88;3.13;;;7.60;99.90;;;;;;5135126;27;20172;-67
2022/01/18 11:50:44;;;;;;;13.57;4.60;;;7.70;99.90;;;;;;5099745;27;20372;-67
2022/01/18 11:53:22;;;;;;;15.68;4.25;;;7.70;99.90;;;;;;5116024;27;20043;-68
2022/01/18 11:55:48;;;;;;;13.02;4.45;;;7.70;99.90;;;;;;5134635;27;20050;-68
2022/01/18 11:58:14;;;;;;;11.02;3.65;;;7.70;99.90;;;;;;5134636;27;20043;-67
2022/01/18 12:00:52;;;;;;;11.40;3.38;;;7.70;99.90;;;;;;5117156;27;20083;-67
2022/01/18 12:03:40;;;;;;;13.18;3.17;;;7.70;99.90;;;;;;5140377;27;20510;-67
2022/01/18 12:06:06;;;;;;;9.50;2.47;;;7.70;99.90;;;;;;5102033;27;20050;-67
2022/01/18 12:08:35;;;;;;;15.27;3.13;;;7.70;99.90;;;;;;5118865;27;20402;-67
2022/01/18 12:11:09;;;;;;;8.07;3.00;;;7.80;99.90;;;;;;5134361;27;20391;-67
2022/01/18 12:13:39;;;;;;;9.40;2.60;;;7.70;99.90;;;;;;5114318;27;20043;-67
2022/01/18 12:16:11;;;;;;;11.80;3.15;;;7.70;99.90;;;;;;5132950;27;20499;-67
2022/01/18 12:18:52;;;;;;;13.23;3.45;;;7.80;99.90;;;;;;5134170;27;20039;-66
2022/01/18 12:21:22;;;;;;;9.15;2.95;;;7.70;99.90;;;;;;5117923;27;20046;-67
2022/01/18 12:23:48;;;;;;;11.00;3.25;;;7.70;99.90;;;;;;5115672;27;20058;-67
2022/01/18 12:26:27;;;;;;;12.73;3.10;;;7.80;99.90;;;;;;5115376;27;20047;-68
2022/01/18 12:34:41;;;;;;;7.38;2.75;;;7.80;99.90;;;;;;5115474;27;20507;-68
2022/01/18 12:39:50;;;;;;;14.20;3.92;;;7.70;99.90;;;;;;5133826;27;20556;-70
2022/01/18 12:45:16;;;;;;;8.93;2.88;;;7.70;99.90;;;;;;5133650;27;20047;-69
2022/01/18 12:47:44;;;;;;;12.43;3.35;;;7.70;99.90;;;;;;5133628;27;20170;-67
2022/01/18 12:50:11;;;;;;;8.57;3.33;;;7.80;99.90;;;;;;5115139;27;20043;-67
2022/01/18 12:52:50;;;;;;;11.18;3.80;;;7.80;99.90;;;;;;5133127;27;20035;-68
2022/01/18 12:55:38;;;;;;;14.77;3.80;;;7.70;99.90;;;;;;5133176;27;20099;-67
2022/01/18 12:58:34;;;;;;;10.88;3.95;;;7.80;99.90;;;;;;5114970;27;20039;-68
2022/01/18 13:01:07;;;;;;;10.95;3.80;;;7.70;99.90;;;;;;5113420;27;20574;-68
2022/01/18 13:03:41;;;;;;;10.77;3.90;;;7.70;99.90;;;;;;5114356;27;20057;-68
2022/01/18 13:06:12;;;;;;;12.55;4.15;;;7.70;99.90;;;;;;5115358;27;20050;-67
2022/01/18 13:08:47;;;;;;;11.57;4.05;;;7.70;99.90;;;;;;5133687;27;20491;-68
2022/01/18 13:11:26;;;;;;;11.23;4.03;;;7.70;99.90;;;;;;5115189;27;20372;-67
2022/01/18 13:14:07;;;;;;;9.65;3.35;;;7.70;99.90;;;;;;5132897;27;20047;-67
2022/01/18 13:25:07;;;;;;;11.95;3.67;;;7.70;99.90;;;;;;5114336;27;20084;-67
2022/01/18 13:27:46;;;;;;;9.48;3.13;;;7.70;99.90;;;;;;5133454;27;20471;-67
2022/01/18 13:30:22;;;;;;;24.63;7.90;;;7.70;99.90;;;;;;5134214;27;20419;-67
2022/01/18 13:32:49;;;;;;;14.40;4.20;;;7.70;99.90;;;;;;5097336;28;20047;-67
2022/01/18 13:35:18;;;;;;;12.77;4.70;;;7.60;99.90;;;;;;5114396;27;20057;-67
2022/01/18 13:37:44;;;;;;;10.65;3.72;;;7.70;99.90;;;;;;5132903;27;20042;-67
2022/01/18 13:40:14;;;;;;;8.90;3.75;;;7.60;99.90;;;;;;5114344;28;20043;-67
2022/01/18 13:43:07;;;;;;;16.88;4.40;;;7.60;99.90;;;;;;5114212;28;20039;-67
2022/01/18 13:45:34;;;;;;;14.20;4.30;;;7.40;99.90;;;;;;5105638;28;20066;-67
2022/01/18 13:48:06;;;;;;;13.20;4.35;;;7.50;99.90;;;;;;5114420;28;20054;-67
2022/01/18 13:50:47;;;;;;;15.07;4.85;;;7.50;99.90;;;;;;5114351;28;20125;-67
2022/01/18 13:53:20;;;;;;;14.20;3.95;;;7.50;99.90;;;;;;5132357;28;20043;-68
2022/01/18 13:55:48;;;;;;;;;;;7.50;99.90;;;;;;5097752;28;20049;-67
2022/01/18 13:58:19;;;;;;;14.82;4.55;;;7.50;99.90;;;;;;5114125;28;19919;-67
2022/01/18 14:00:48;;;;;;;15.10;4.72;;;7.50;99.90;;;;;;5114260;28;20123;-67
2022/01/18 14:03:50;;;;;;;12.30;4.10;;;7.50;99.90;;;;;;5113752;28;20079;-67
2022/01/18 14:06:17;;;;;;;13.95;4.55;;;7.50;99.90;;;;;;5032612;28;20448;-67
2022/01/18 14:08:51;;;;;;;10.52;4.40;;;7.60;99.90;;;;;;5116589;28;20058;-67
2022/01/18 14:11:19;;;;;;;13.02;3.78;;;7.50;99.90;;;;;;5114283;28;20035;-67
2022/01/18 14:13:46;;;;;;;10.57;4.00;;;7.50;99.90;;;;;;5113761;28;20039;-68
2022/01/18 14:16:33;;;;;;;18.52;4.38;;;7.50;99.90;;;;;;5131643;28;20042;-68
2022/01/18 14:19:10;;;;;;;11.48;4.57;;;7.60;99.90;;;;;;5111272;28;20035;-67
2022/01/18 14:21:47;;;;;;;14.68;3.90;;;7.50;99.90;;;;;;5113772;28;20043;-68
2022/01/18 14:24:24;;;;;;;17.05;4.60;;;7.50;99.90;;;;;;5131734;27;20107;-66
2022/01/18 14:26:53;;;;;;;16.40;4.05;;;7.50;99.90;;;;;;5094309;28;20092;-66